Time;durP1;ratioP1;P1;durP2;ratioP2;P2;SDS_P1;SDS_P2;PMS_P1;PMS_P2;Temp;Humidity;BMP_temperature;BMP_pressure;BME280_temperature;BME280_humidity;BME280_pressure;Samples;Min_cycle;Max_cycle;Signal;HPM_P1;HPM_P2
2022/12/06 00:01:43;;;;;;;135.63;59.05;;;;;;;5.42;77.71;98580.38;5047101;28;20066;-81
2022/12/06 00:04:10;;;;;;;129.82;56.40;;;;;;;5.43;77.98;98581.19;5047840;28;20036;-80
2022/12/06 00:06:39;;;;;;;128.40;55.00;;;;;;;5.44;77.64;98574.69;5048450;28;20031;-80
2022/12/06 00:09:05;;;;;;;115.80;52.58;;;;;;;5.46;77.89;98580.69;5047276;28;20068;-80
2022/12/06 00:11:33;;;;;;;118.30;53.95;;;;;;;5.45;78.22;98577.13;5047094;28;20021;-82
2022/12/06 00:14:04;;;;;;;116.43;51.47;;;;;;;5.44;77.90;98569.25;5047580;28;20035;-80
2022/12/06 00:16:30;;;;;;;113.00;52.40;;;;;;;5.43;77.71;98567.59;5048253;28;20021;-80
2022/12/06 00:18:56;;;;;;;116.15;51.85;;;;;;;5.43;77.62;98568.41;5048011;28;20070;-80
2022/12/06 00:21:27;;;;;;;114.55;51.20;;;;;;;5.42;77.70;98564.03;5047480;28;20709;-82
2022/12/06 00:23:57;;;;;;;114.43;50.85;;;;;;;5.44;77.58;98558.34;5049019;28;20074;-83
2022/12/06 00:26:22;;;;;;;;;;;;;;;5.44;77.76;98552.91;5049107;28;20021;-82
2022/12/06 00:28:54;;;;;;;120.90;53.00;;;;;;;5.43;77.75;98549.38;5047092;28;19994;-82
2022/12/06 00:31:22;;;;;;;125.07;54.58;;;;;;;5.41;77.77;98550.72;5045580;28;20021;-83
2022/12/06 00:33:47;;;;;;;121.97;56.33;;;;;;;5.38;77.58;98546.59;5047936;28;20074;-82
2022/12/06 00:36:22;;;;;;;126.45;54.25;;;;;;;5.37;78.16;98536.81;5047750;28;20025;-82
2022/12/06 00:38:48;;;;;;;123.63;55.03;;;;;;;5.34;77.53;98531.88;5048157;28;20029;-82
2022/12/06 00:41:19;;;;;;;120.97;52.45;;;;;;;5.32;77.84;98529.44;5047673;28;20047;-82
2022/12/06 00:43:45;;;;;;;116.50;49.25;;;;;;;5.31;77.84;98529.69;5047580;28;20060;-81
2022/12/06 00:46:32;;;;;;;96.35;45.08;;;;;;;5.28;78.16;98532.94;5048200;28;20056;-81
2022/12/06 00:48:59;;;;;;;83.35;37.08;;;;;;;5.28;78.02;98519.34;5047791;28;20060;-82
2022/12/06 00:51:27;;;;;;;79.10;37.72;;;;;;;5.26;78.34;98514.16;5047514;28;20029;-82
2022/12/06 00:53:53;;;;;;;75.95;37.33;;;;;;;5.28;78.29;98514.72;5048096;28;20041;-83
2022/12/06 00:56:18;;;;;;;79.57;38.08;;;;;;;5.28;78.17;98512.00;5050937;28;20028;-83
2022/12/06 00:58:44;;;;;;;84.15;39.13;;;;;;;5.29;78.21;98502.75;5048371;28;20066;-83
2022/12/06 01:01:21;;;;;;;84.03;39.85;;;;;;;5.32;78.28;98504.13;5049065;28;20203;-83
2022/12/06 01:03:50;;;;;;;89.93;44.83;;;;;;;5.34;78.70;98507.41;5047423;28;20070;-83
2022/12/06 01:06:18;;;;;;;111.90;52.50;;;;;;;5.36;78.42;98503.34;5048375;28;20021;-82
2022/12/06 01:08:44;;;;;;;109.85;51.30;;;;;;;5.40;78.32;98502.84;5047284;28;20271;-83
2022/12/06 01:11:12;;;;;;;122.10;55.45;;;;;;;5.41;78.25;98496.31;5048037;28;20290;-83
2022/12/06 01:13:37;;;;;;;151.93;65.90;;;;;;;5.42;78.56;98496.03;5048013;28;20036;-83
2022/12/06 01:16:07;;;;;;;184.25;78.68;;;;;;;5.44;78.30;98495.78;5047949;28;20496;-83
2022/12/06 01:18:33;;;;;;;150.48;66.38;;;;;;;5.47;78.29;98487.13;5047962;28;20637;-83
2022/12/06 01:21:07;;;;;;;142.43;62.65;;;;;;;5.46;78.14;98485.47;5047563;28;20029;-83
2022/12/06 01:23:32;;;;;;;131.20;58.80;;;;;;;5.46;78.52;98480.84;5045975;28;20064;-84
2022/12/06 01:25:58;;;;;;;137.45;60.80;;;;;;;5.48;78.46;98477.88;5047024;28;20510;-84
2022/12/06 01:28:23;;;;;;;139.52;63.72;;;;;;;5.47;78.53;98479.75;5046976;28;20025;-83
2022/12/06 01:30:48;;;;;;;142.13;65.22;;;;;;;5.48;78.58;98472.44;5046668;28;20035;-83
2022/12/06 01:33:15;;;;;;;144.80;65.43;;;;;;;5.50;78.26;98470.28;5047192;28;20082;-84
2022/12/06 01:35:41;;;;;;;147.52;65.15;;;;;;;5.51;78.67;98461.00;5047831;28;20020;-84
2022/12/06 01:38:08;;;;;;;143.43;64.45;;;;;;;5.55;78.16;98458.59;5047784;28;20028;-84
2022/12/06 01:40:41;;;;;;;148.05;69.60;;;;;;;5.56;78.33;98454.78;5047194;28;20557;-84
2022/12/06 01:43:28;;;;;;;155.68;68.45;;;;;;;5.57;78.43;98464.59;5048906;28;20036;-84
2022/12/06 01:45:54;;;;;;;144.68;64.88;;;;;;;5.59;78.54;98451.53;5049054;28;20362;-84
2022/12/06 01:48:24;;;;;;;147.10;67.93;;;;;;;5.59;78.29;98448.81;5050661;28;20036;-84
2022/12/06 01:50:50;;;;;;;149.20;66.55;;;;;;;5.61;78.38;98447.47;5050367;28;20033;-83
2022/12/06 01:53:18;;;;;;;143.90;63.55;;;;;;;5.60;78.23;98442.28;5050500;28;20554;-84
2022/12/06 01:55:44;;;;;;;139.23;61.83;;;;;;;5.60;78.60;98440.38;5051229;28;20051;-83
2022/12/06 01:58:14;;;;;;;140.73;61.30;;;;;;;5.60;78.23;98437.66;5051149;28;20060;-83
2022/12/06 02:00:40;;;;;;;128.55;57.55;;;;;;;5.61;78.25;98433.84;5051329;28;20036;-83
2022/12/06 02:03:11;;;;;;;125.28;57.30;;;;;;;5.60;78.40;98429.50;5050997;28;20029;-84
2022/12/06 02:05:37;;;;;;;119.55;55.60;;;;;;;5.61;78.42;98420.25;5050033;28;20032;-84
2022/12/06 02:08:03;;;;;;;113.03;53.15;;;;;;;5.62;78.70;98416.44;5051012;28;20028;-84
2022/12/06 02:10:30;;;;;;;114.70;51.70;;;;;;;5.62;78.24;98412.94;5049404;28;20036;-83
2022/12/06 02:12:57;;;;;;;110.50;50.78;;;;;;;5.63;78.43;98414.56;5049471;28;20017;-83
2022/12/06 02:15:49;;;;;;;104.20;47.70;;;;;;;5.62;78.09;98408.28;5050147;28;20036;-83
2022/12/06 02:18:44;;;;;;;102.97;46.58;;;;;;;5.60;78.13;98407.72;5050238;28;20074;-83
2022/12/06 02:21:21;;;;;;;100.57;47.42;;;;;;;5.60;78.26;98391.41;5049762;28;20033;-84
2022/12/06 02:23:59;;;;;;;98.95;46.78;;;;;;;5.60;78.45;98394.13;5050537;28;20489;-83
2022/12/06 02:26:42;;;;;;;93.05;45.33;;;;;;;5.59;78.19;98386.25;5050188;28;20039;-84
2022/12/06 02:29:28;;;;;;;95.15;44.60;;;;;;;5.58;78.44;98379.16;5050312;28;20107;-83
2022/12/06 02:32:02;;;;;;;95.03;44.25;;;;;;;5.56;78.46;98382.13;5048197;28;20025;-84
2022/12/06 02:34:28;;;;;;;161.60;68.20;;;;;;;5.57;78.37;98383.78;5050099;28;20012;-84
2022/12/06 02:37:06;;;;;;;130.10;55.13;;;;;;;5.56;78.36;98375.91;5049993;28;20043;-84
2022/12/06 02:39:54;;;;;;;186.13;75.63;;;;;;;5.56;78.51;98373.16;5048954;28;20021;-84
2022/12/06 02:42:46;;;;;;;164.60;70.68;;;;;;;5.57;78.36;98383.78;5049834;28;20238;-84
2022/12/06 02:45:17;;;;;;;129.93;57.80;;;;;;;5.59;78.66;98380.81;5047758;28;20025;-84
2022/12/06 02:47:49;;;;;;;101.50;46.00;;;;;;;5.59;78.62;98389.78;5048668;28;20021;-81
2022/12/06 02:50:23;;;;;;;104.95;49.30;;;;;;;5.59;78.38;98376.16;5049118;28;20068;-83
2022/12/06 02:52:52;;;;;;;93.20;44.58;;;;;;;5.59;78.12;98368.00;5049259;28;20087;-83
2022/12/06 02:55:20;;;;;;;87.32;42.83;;;;;;;5.61;78.80;98365.03;5048199;28;20028;-82
2022/12/06 02:57:49;;;;;;;79.82;41.10;;;;;;;5.60;78.35;98371.56;5048894;28;20075;-82
2022/12/06 03:00:27;;;;;;;80.78;41.40;;;;;;;5.59;78.21;98368.00;5048331;28;20028;-82
2022/12/06 03:03:03;;;;;;;82.10;41.58;;;;;;;5.60;78.71;98361.47;5076054;28;20032;-83
2022/12/06 03:05:41;;;;;;;76.10;39.05;;;;;;;5.61;78.86;98360.41;5048345;28;20037;-83
2022/12/06 03:08:17;;;;;;;74.75;37.17;;;;;;;5.62;78.34;98350.34;5049741;28;20033;-83
2022/12/06 03:11:03;;;;;;;75.93;38.97;;;;;;;5.61;78.43;98352.25;5048095;28;20020;-83
2022/12/06 03:13:51;;;;;;;73.72;37.30;;;;;;;5.63;78.86;98349.25;5049148;28;20103;-83
2022/12/06 03:16:33;;;;;;;69.80;37.50;;;;;;;5.62;78.58;98363.94;5048429;28;20043;-83
2022/12/06 03:19:25;;;;;;;74.75;37.20;;;;;;;5.63;78.43;98363.69;5048714;28;20024;-83
2022/12/06 03:22:05;;;;;;;73.97;37.15;;;;;;;5.63;78.55;98371.03;5047559;28;20044;-83
2022/12/06 03:24:34;;;;;;;72.03;37.45;;;;;;;5.65;78.85;98377.03;5048859;28;20112;-82
2022/12/06 03:27:05;;;;;;;72.82;38.08;;;;;;;5.65;78.31;98374.31;5048446;28;20013;-84
2022/12/06 03:29:33;;;;;;;77.00;38.78;;;;;;;5.63;78.61;98380.00;5049201;28;20507;-83
2022/12/06 03:32:02;;;;;;;71.40;36.85;;;;;;;5.64;78.28;98389.81;5052146;28;20035;-83
2022/12/06 03:34:36;;;;;;;75.38;36.83;;;;;;;5.63;78.43;98380.00;5046313;28;20109;-80
2022/12/06 03:37:04;;;;;;;70.80;37.15;;;;;;;5.64;78.67;98368.03;5046711;28;20086;-78
2022/12/06 03:39:35;;;;;;;72.13;35.83;;;;;;;5.64;78.86;98368.03;5048704;28;20486;-83
2022/12/06 03:42:01;;;;;;;72.30;38.38;;;;;;;5.66;78.73;98368.59;5047182;28;20056;-83
2022/12/06 03:44:27;;;;;;;72.78;36.55;;;;;;;5.65;78.21;98358.78;5046801;28;20456;-83
2022/12/06 03:47:00;;;;;;;65.43;36.55;;;;;;;5.67;78.74;98361.25;5045873;28;20041;-83
2022/12/06 03:49:34;;;;;;;66.50;36.10;;;;;;;5.66;78.82;98354.19;5048767;28;20033;-83
2022/12/06 03:51:59;;;;;;;69.13;35.95;;;;;;;5.68;78.72;98353.91;5046610;28;20032;-83
2022/12/06 03:54:25;;;;;;;70.85;36.53;;;;;;;5.69;78.46;98352.81;5045895;28;20044;-82
2022/12/06 03:56:50;;;;;;;70.88;37.47;;;;;;;5.71;78.68;98353.38;5046545;28;20060;-82
2022/12/06 03:59:16;;;;;;;73.25;38.08;;;;;;;5.70;78.46;98338.13;5047276;28;20059;-81
2022/12/06 04:01:41;;;;;;;74.63;37.97;;;;;;;5.69;78.37;98340.03;5040490;28;20044;-82
2022/12/06 04:04:08;;;;;;;76.55;39.13;;;;;;;5.68;78.24;98338.41;5045580;28;20036;-82
2022/12/06 04:06:33;;;;;;;72.80;39.88;;;;;;;5.67;78.18;98334.03;5047847;28;20108;-83
2022/12/06 04:11:42;;;;;;;75.00;37.60;;;;;;;5.69;78.46;98320.16;5047198;28;20539;-84
2022/12/06 04:14:08;;;;;;;72.25;38.50;;;;;;;5.68;78.42;98319.34;5047088;28;20025;-83
2022/12/06 04:19:17;;;;;;;71.18;36.97;;;;;;;5.67;78.46;98320.44;5047771;28;20052;-83
2022/12/06 04:24:26;;;;;;;73.22;37.78;;;;;;;5.64;78.27;98318.25;5047647;28;20040;-83
2022/12/06 04:28:40;;;;;;;73.95;38.38;;;;;;;5.64;78.38;98316.34;5049841;28;20025;-83
2022/12/06 04:40:33;;;;;;;107.75;48.40;;;;;;;5.63;78.75;98330.22;5048754;28;20040;-83
2022/12/06 04:45:42;;;;;;;90.65;42.35;;;;;;;5.64;78.92;98324.50;5049668;28;20504;-82
2022/12/06 04:48:09;;;;;;;65.10;33.90;;;;;;;5.66;78.71;98313.38;5049760;28;20024;-82
2022/12/06 04:50:35;;;;;;;51.08;28.35;;;;;;;5.63;78.79;98308.44;5048559;28;20261;-82
2022/12/06 04:53:01;;;;;;;51.35;29.27;;;;;;;5.59;78.84;98308.16;5049393;28;20489;-83
2022/12/06 04:55:26;;;;;;;54.80;30.67;;;;;;;5.49;79.13;98300.78;5049529;28;20030;-83
2022/12/06 04:57:52;;;;;;;55.70;31.23;;;;;;;5.42;78.52;98308.38;5048085;28;20047;-83
2022/12/06 05:00:17;;;;;;;53.20;29.35;;;;;;;5.38;78.68;98304.53;5048924;28;20024;-83
2022/12/06 05:02:43;;;;;;;53.05;30.33;;;;;;;5.35;78.46;98300.47;5049793;28;20078;-82
2022/12/06 05:05:08;;;;;;;54.63;30.75;;;;;;;5.33;78.38;98305.34;5049748;28;20135;-83
2022/12/06 05:07:34;;;;;;;55.22;31.08;;;;;;;5.34;78.68;98309.72;5049662;28;20448;-83
2022/12/06 05:09:59;;;;;;;59.13;31.50;;;;;;;5.31;78.96;98315.69;5045676;28;20026;-84
2022/12/06 05:12:25;;;;;;;53.35;30.35;;;;;;;5.30;78.87;98316.75;5049027;28;20116;-83
2022/12/06 05:14:50;;;;;;;52.63;29.23;;;;;;;5.34;78.88;98317.88;5049190;28;20167;-83
2022/12/06 05:17:15;;;;;;;50.53;28.08;;;;;;;5.38;78.65;98309.19;5050026;28;20033;-82
2022/12/06 05:19:41;;;;;;;52.30;28.10;;;;;;;5.39;78.75;98295.28;5054257;28;20067;-83
2022/12/06 05:22:06;;;;;;;50.15;28.02;;;;;;;5.40;79.01;98304.28;5051400;28;20466;-83
2022/12/06 05:24:32;;;;;;;51.35;28.52;;;;;;;5.38;79.00;98296.38;5052617;28;20083;-83
2022/12/06 05:26:57;;;;;;;50.13;27.88;;;;;;;5.43;78.88;98292.88;5052755;28;20032;-83
2022/12/06 05:29:22;;;;;;;48.85;27.33;;;;;;;5.43;78.71;98280.09;5052829;28;20048;-83
2022/12/06 05:31:48;;;;;;;47.15;26.25;;;;;;;5.43;79.09;98282.81;5047900;28;20028;-83
2022/12/06 05:34:13;;;;;;;42.00;24.63;;;;;;;5.45;79.00;98285.28;5052265;28;20036;-82
2022/12/06 05:36:38;;;;;;;41.63;24.25;;;;;;;5.45;78.65;98286.06;5051814;28;20052;-83
2022/12/06 05:39:04;;;;;;;43.55;24.30;;;;;;;5.46;78.96;98284.19;5049297;28;20480;-82
2022/12/06 05:41:29;;;;;;;40.55;22.52;;;;;;;5.48;78.67;98292.91;5052696;28;20033;-83
2022/12/06 05:43:55;;;;;;;39.30;23.55;;;;;;;5.47;78.55;98283.91;5052383;28;20037;-81
2022/12/06 05:46:20;;;;;;;43.88;25.55;;;;;;;5.49;78.99;98287.19;5053446;28;20091;-83
2022/12/06 05:48:46;;;;;;;44.15;24.42;;;;;;;5.52;78.82;98285.81;5050406;28;20112;-82
2022/12/06 05:51:11;;;;;;;41.72;23.13;;;;;;;5.52;79.06;98283.09;5051012;28;20033;-83
2022/12/06 05:53:37;;;;;;;38.88;23.25;;;;;;;5.55;79.01;98288.00;5052118;28;20045;-83
2022/12/06 05:56:05;;;;;;;42.90;24.08;;;;;;;5.53;78.96;98286.66;5052574;28;20036;-83
2022/12/06 05:58:31;;;;;;;40.70;23.70;;;;;;;5.54;79.10;98286.38;5048934;28;20037;-82
2022/12/06 06:00:56;;;;;;;41.67;23.63;;;;;;;5.57;78.57;98282.31;5051681;28;20033;-82
2022/12/06 06:03:21;;;;;;;45.35;25.65;;;;;;;5.57;78.52;98280.41;5052127;28;20457;-82
2022/12/06 06:05:49;;;;;;;46.53;25.63;;;;;;;5.60;79.15;98279.84;5050783;28;20044;-83
2022/12/06 06:08:16;;;;;;;52.17;28.55;;;;;;;5.61;78.95;98275.25;5055134;28;20086;-83
2022/12/06 06:10:41;;;;;;;51.50;28.73;;;;;;;5.60;78.80;98270.91;5052950;28;20029;-83
2022/12/06 06:13:07;;;;;;;50.15;28.77;;;;;;;5.59;78.89;98270.06;5051164;28;20039;-83
2022/12/06 06:15:32;;;;;;;50.90;29.55;;;;;;;5.59;78.58;98266.53;5048447;28;20040;-83
2022/12/06 06:17:58;;;;;;;50.65;29.65;;;;;;;5.58;78.60;98254.81;5047155;28;20474;-82
2022/12/06 06:20:23;;;;;;;50.53;29.27;;;;;;;5.57;78.40;98258.63;5050798;28;20033;-82
2022/12/06 06:22:48;;;;;;;52.85;30.08;;;;;;;5.56;78.90;98254.28;5047133;28;20067;-83
2022/12/06 06:25:14;;;;;;;52.05;29.00;;;;;;;5.59;78.60;98250.22;5051209;28;20473;-83
2022/12/06 06:27:39;;;;;;;53.40;30.38;;;;;;;5.59;78.56;98245.56;5052310;28;20033;-83
2022/12/06 06:30:08;;;;;;;48.75;28.67;;;;;;;5.57;78.50;98253.19;5051509;28;20144;-83
2022/12/06 06:32:33;;;;;;;49.22;28.90;;;;;;;5.54;78.45;98242.03;5039567;28;20413;-83
2022/12/06 06:34:59;;;;;;;53.30;30.65;;;;;;;5.52;78.46;98247.72;5039103;28;20036;-83
2022/12/06 06:37:24;;;;;;;50.90;30.02;;;;;;;5.54;78.45;98242.84;5034866;28;20113;-82
2022/12/06 06:39:50;;;;;;;54.22;30.20;;;;;;;5.53;78.84;98237.69;5043318;28;20119;-82
2022/12/06 06:42:16;;;;;;;55.50;31.13;;;;;;;5.52;78.83;98234.13;5049610;28;20040;-83
2022/12/06 06:44:42;;;;;;;58.83;33.63;;;;;;;5.50;78.79;98222.72;5050375;28;20747;-83
2022/12/06 06:47:07;;;;;;;65.65;33.53;;;;;;;5.47;78.58;98234.94;5047734;28;20030;-83
2022/12/06 06:49:33;;;;;;;59.20;32.65;;;;;;;5.45;78.48;98228.16;5049979;28;20047;-79
2022/12/06 06:51:59;;;;;;;131.35;72.97;;;;;;;5.42;78.72;98236.84;5047607;28;20146;-83
2022/12/06 06:54:26;;;;;;;96.22;52.33;;;;;;;5.43;78.45;98230.31;5045227;28;20153;-80
2022/12/06 06:56:56;;;;;;;65.50;38.70;;;;;;;5.44;78.63;98230.03;5045774;28;20393;-78
2022/12/06 06:59:22;;;;;;;62.80;35.80;;;;;;;5.45;78.61;98230.88;5055863;28;20384;-78
2022/12/06 07:01:47;;;;;;;56.33;32.58;;;;;;;5.46;78.63;98224.34;5048575;28;20029;-78
2022/12/06 07:04:13;;;;;;;65.85;40.55;;;;;;;5.47;79.07;98228.69;5048765;28;20033;-78
2022/12/06 07:06:38;;;;;;;69.07;42.42;;;;;;;5.47;78.86;98226.78;5048195;28;20025;-78
2022/12/06 07:09:04;;;;;;;77.10;44.47;;;;;;;5.49;78.83;98223.81;5049578;28;20481;-78
2022/12/06 07:11:29;;;;;;;117.72;58.63;;;;;;;5.49;79.01;98229.25;5050754;28;20469;-79
2022/12/06 07:13:55;;;;;;;77.32;42.42;;;;;;;5.49;78.67;98224.63;5049414;28;20111;-79
2022/12/06 07:16:20;;;;;;;74.55;39.83;;;;;;;5.51;78.98;98229.78;5051344;28;20033;-77
2022/12/06 07:18:46;;;;;;;164.13;74.57;;;;;;;5.54;79.01;98228.44;5052227;28;20033;-78
2022/12/06 07:21:14;;;;;;;130.88;61.30;;;;;;;5.55;79.05;98217.28;5052456;28;20025;-76
2022/12/06 07:23:39;;;;;;;92.20;48.58;;;;;;;5.55;78.63;98221.91;5049865;28;20100;-77
2022/12/06 07:26:06;;;;;;;100.82;53.63;;;;;;;5.56;78.57;98229.00;5051500;28;20039;-79
2022/12/06 07:28:35;;;;;;;77.45;42.25;;;;;;;5.55;78.43;98225.44;5049445;28;20029;-79
2022/12/06 07:31:18;;;;;;;79.35;41.92;;;;;;;5.56;78.58;98229.78;5051206;28;20314;-80
2022/12/06 07:33:44;;;;;;;76.55;41.38;;;;;;;5.55;78.71;98230.88;5047747;28;20032;-80
2022/12/06 07:36:11;;;;;;;75.35;43.08;;;;;;;5.54;78.67;98226.53;5048289;28;20228;-78
2022/12/06 07:38:36;;;;;;;69.47;41.30;;;;;;;5.53;78.70;98221.38;5049349;28;20115;-77
2022/12/06 07:46:40;;;;;;;59.10;35.53;;;;;;;5.53;78.79;98215.91;5049689;28;20562;-76
2022/12/06 07:49:05;;;;;;;61.63;36.78;;;;;;;5.56;78.34;98216.19;5048412;28;20478;-75
2022/12/06 07:51:31;;;;;;;61.65;39.08;;;;;;;5.57;78.82;98217.03;5046399;28;20032;-76
2022/12/06 07:53:57;;;;;;;62.08;39.78;;;;;;;5.58;79.11;98216.75;5051530;28;20072;-76
2022/12/06 07:56:22;;;;;;;58.50;37.45;;;;;;;5.62;78.78;98217.84;5049342;28;20473;-76
2022/12/06 07:58:48;;;;;;;61.75;38.35;;;;;;;5.62;78.72;98223.28;5050801;28;20029;-76
2022/12/06 08:01:13;;;;;;;64.10;39.33;;;;;;;5.65;78.80;98220.03;5048558;28;20045;-79
2022/12/06 08:03:39;;;;;;;65.63;38.75;;;;;;;5.69;78.83;98220.31;5050411;28;20025;-78
2022/12/06 08:06:04;;;;;;;68.30;39.08;;;;;;;5.71;78.83;98215.38;5051939;28;20029;-78
2022/12/06 08:08:30;;;;;;;69.30;38.10;;;;;;;5.73;78.46;98221.38;5048434;28;20025;-80
2022/12/06 08:11:04;;;;;;;72.88;39.95;;;;;;;5.73;78.80;98221.38;5049189;28;20024;-80
2022/12/06 08:13:30;;;;;;;72.75;40.80;;;;;;;5.75;78.48;98210.25;5053252;28;20419;-79
2022/12/06 08:15:55;;;;;;;74.10;39.45;;;;;;;5.76;78.50;98215.41;5049364;28;20120;-80
2022/12/06 08:18:21;;;;;;;74.35;40.03;;;;;;;5.76;78.64;98214.59;5051361;28;20032;-78
2022/12/06 08:20:46;;;;;;;59.25;36.58;;;;;;;5.77;78.54;98213.50;5049363;28;20048;-77
2022/12/06 08:23:16;;;;;;;59.22;34.33;;;;;;;5.78;78.70;98220.59;5049458;28;20017;-79
2022/12/06 08:25:42;;;;;;;59.13;34.13;;;;;;;5.75;78.73;98218.41;5050670;28;20033;-79
2022/12/06 08:28:08;;;;;;;58.42;32.15;;;;;;;5.74;78.53;98224.94;5050156;28;20558;-80
2022/12/06 08:30:33;;;;;;;57.03;30.60;;;;;;;5.72;78.46;98221.66;5047003;28;20025;-79
2022/12/06 08:32:58;;;;;;;49.88;28.35;;;;;;;5.72;78.80;98218.94;5046485;28;20056;-80
2022/12/06 08:35:24;;;;;;;46.80;26.70;;;;;;;5.70;78.64;98215.69;5051744;28;20035;-81
2022/12/06 08:37:49;;;;;;;52.30;28.05;;;;;;;5.70;78.49;98219.22;5052533;28;20029;-81
2022/12/06 08:40:15;;;;;;;46.42;26.25;;;;;;;5.73;78.67;98221.38;5055554;28;20668;-80
2022/12/06 08:42:44;;;;;;;48.85;26.75;;;;;;;5.78;78.58;98220.59;5054564;28;20064;-79
2022/12/06 08:45:10;;;;;;;52.40;28.58;;;;;;;5.80;78.60;98221.13;5055375;28;20082;-80
2022/12/06 08:47:35;;;;;;;50.83;29.08;;;;;;;5.78;78.60;98218.66;5050827;28;20017;-79
2022/12/06 08:50:01;;;;;;;55.70;30.60;;;;;;;5.78;78.70;98224.13;5050920;28;20029;-78
2022/12/06 08:52:26;;;;;;;57.05;30.50;;;;;;;5.78;78.89;98218.66;5048831;28;20104;-79
2022/12/06 08:54:51;;;;;;;58.03;31.67;;;;;;;5.79;78.81;98212.13;5050842;28;20059;-79
2022/12/06 08:57:17;;;;;;;53.83;30.85;;;;;;;5.79;78.77;98214.06;5053002;28;20052;-79
2022/12/06 08:59:42;;;;;;;56.95;31.20;;;;;;;5.80;78.82;98215.69;5055847;28;20071;-79
2022/12/06 09:02:11;;;;;;;56.67;31.15;;;;;;;5.80;78.51;98213.78;5054230;28;20420;-78
2022/12/06 09:04:36;;;;;;;59.28;32.90;;;;;;;5.81;78.88;98209.97;5053973;28;20029;-77
2022/12/06 09:07:02;;;;;;;62.05;35.78;;;;;;;5.84;78.62;98215.97;5053746;28;20596;-80
2022/12/06 09:09:27;;;;;;;58.80;32.67;;;;;;;5.84;78.43;98215.97;5050531;28;20147;-78
2022/12/06 09:11:53;;;;;;;60.38;32.45;;;;;;;5.82;78.99;98210.81;5050913;28;20025;-78
2022/12/06 09:14:19;;;;;;;55.95;32.42;;;;;;;5.81;78.59;98207.25;5052144;28;20036;-78
2022/12/06 09:16:44;;;;;;;57.60;32.08;;;;;;;5.80;78.79;98207.53;5052060;28;20021;-79
2022/12/06 09:19:11;;;;;;;57.63;34.00;;;;;;;5.79;78.78;98203.97;5052485;28;20098;-79
2022/12/06 09:21:38;;;;;;;59.03;32.30;;;;;;;5.78;78.56;98198.81;5053047;28;20017;-77
2022/12/06 09:24:04;;;;;;;54.28;31.42;;;;;;;5.80;78.86;98202.09;5049663;28;20048;-78
2022/12/06 09:26:30;;;;;;;56.47;30.15;;;;;;;5.81;78.85;98192.84;5053952;28;20031;-80
2022/12/06 09:28:56;;;;;;;55.00;31.63;;;;;;;5.78;78.63;98188.72;5053627;28;20104;-80
2022/12/06 09:31:23;;;;;;;55.10;30.83;;;;;;;5.77;78.73;98191.75;5052984;28;20044;-81
2022/12/06 09:33:49;;;;;;;48.15;26.45;;;;;;;5.75;78.71;98200.16;5049101;28;20112;-84
2022/12/06 09:36:40;;;;;;;49.33;27.70;;;;;;;5.70;78.86;98188.47;5053779;28;20080;-81
2022/12/06 09:39:15;;;;;;;51.60;28.33;;;;;;;5.66;78.61;98196.38;5051123;28;20052;-80
2022/12/06 09:42:01;;;;;;;48.65;25.85;;;;;;;5.66;78.62;98185.47;5051470;28;20017;-80
2022/12/06 09:44:51;;;;;;;38.25;20.92;;;;;;;5.60;78.38;98184.63;5050147;28;20437;-81
2022/12/06 09:47:22;;;;;;;38.50;21.02;;;;;;;5.57;78.41;98174.28;5052832;28;20032;-80
2022/12/06 09:50:22;;;;;;;35.30;21.80;;;;;;;5.50;78.65;98165.59;5048319;28;20074;-79
2022/12/06 09:53:19;;;;;;;33.05;20.98;;;;;;;5.49;78.69;98163.97;5051670;28;20049;-81
2022/12/06 09:55:56;;;;;;;31.63;18.27;;;;;;;5.42;78.58;98169.66;5046844;28;20475;-81
2022/12/06 09:58:53;;;;;;;22.52;12.75;;;;;;;5.35;78.67;98169.09;5050203;28;20111;-79
2022/12/06 10:01:46;;;;;;;14.43;9.25;;;;;;;5.26;78.20;98170.72;5049724;28;20482;-79
2022/12/06 10:04:49;;;;;;;12.93;7.57;;;;;;;5.13;78.61;98167.44;5050866;28;20477;-77
2022/12/06 10:07:21;;;;;;;11.02;7.22;;;;;;;5.03;78.15;98168.22;5049855;28;20029;-79
2022/12/06 10:10:10;;;;;;;11.68;7.25;;;;;;;4.98;78.27;98170.91;5049242;28;20524;-78
2022/12/06 10:12:44;;;;;;;11.40;6.90;;;;;;;4.98;78.87;98164.66;5046380;28;20051;-78
2022/12/06 10:15:28;;;;;;;8.88;5.20;;;;;;;4.91;78.72;98173.88;5046559;28;20024;-78
2022/12/06 10:18:09;;;;;;;9.05;7.03;;;;;;;4.85;78.16;98165.97;5048294;28;20027;-80
2022/12/06 10:20:35;;;;;;;11.43;7.00;;;;;;;4.83;78.29;98160.81;5050934;28;20105;-79
2022/12/06 10:23:37;;;;;;;9.45;6.30;;;;;;;4.80;78.49;98164.06;5049696;28;20123;-74
2022/12/06 10:26:12;;;;;;;13.43;8.38;;;;;;;4.80;78.71;98150.47;5030726;28;20140;-78
2022/12/06 10:28:57;;;;;;;13.13;7.55;;;;;;;4.77;78.27;98157.25;5050902;28;20049;-81
2022/12/06 10:31:52;;;;;;;11.75;6.70;;;;;;;4.74;78.80;98162.41;5050502;28;20485;-77
2022/12/06 10:34:43;;;;;;;12.10;7.85;;;;;;;4.73;78.84;98150.69;5049975;28;20037;-80
2022/12/06 10:37:30;;;;;;;11.63;7.13;;;;;;;4.70;78.69;98148.50;5051176;28;20036;-78
2022/12/06 10:40:18;;;;;;;15.15;8.05;;;;;;;4.71;79.04;98152.88;5051343;28;20087;-77
2022/12/06 10:42:48;;;;;;;12.68;8.23;;;;;;;4.69;78.61;98156.94;5051081;28;20047;-78
2022/12/06 10:48:35;;;;;;;13.90;8.38;;;;;;;4.60;78.91;98143.84;5050754;28;20047;-79
2022/12/06 10:51:18;;;;;;;15.07;9.15;;;;;;;4.61;78.47;98140.06;5048410;28;20115;-80
2022/12/06 10:53:50;;;;;;;15.27;9.07;;;;;;;4.62;78.99;98138.19;5048586;28;20626;-80
2022/12/06 10:56:21;;;;;;;14.88;8.95;;;;;;;4.62;79.17;98146.31;5052052;28;20138;-79
2022/12/06 10:59:07;;;;;;;17.15;9.40;;;;;;;4.64;78.69;98146.03;5050422;28;20170;-79
2022/12/06 11:01:40;;;;;;;14.30;9.07;;;;;;;4.65;78.66;98139.53;5049260;28;20045;-77
2022/12/06 11:04:23;;;;;;;18.10;9.85;;;;;;;4.61;78.79;98126.47;5048016;28;20382;-81
2022/12/06 11:06:52;;;;;;;15.48;8.95;;;;;;;4.62;78.67;98128.13;5046681;28;20029;-79
2022/12/06 11:09:47;;;;;;;15.65;9.35;;;;;;;4.63;79.09;98123.50;5042732;28;20063;-84
2022/12/06 11:12:33;;;;;;;17.00;9.65;;;;;;;4.63;79.10;98123.50;5038674;28;20596;-82
2022/12/06 11:15:06;;;;;;;19.42;10.43;;;;;;;4.62;78.94;98121.88;5048210;28;20103;-81
2022/12/06 11:17:36;;;;;;;16.20;10.35;;;;;;;4.64;78.90;98124.31;5049174;28;20037;-82
2022/12/06 11:20:15;;;;;;;19.25;10.82;;;;;;;4.66;78.74;98135.72;5049702;28;20108;-82
2022/12/06 11:23:04;;;;;;;18.77;10.35;;;;;;;4.63;79.12;98126.22;5049100;28;20032;-81
2022/12/06 11:25:51;;;;;;;19.52;10.55;;;;;;;4.63;79.27;98128.94;5050112;28;20040;-79
2022/12/06 11:28:34;;;;;;;17.27;9.60;;;;;;;4.59;78.30;98125.94;5049715;28;20396;-81
2022/12/06 11:31:00;;;;;;;18.15;10.25;;;;;;;4.57;78.73;98122.66;5049852;28;20029;-82
2022/12/06 11:33:31;;;;;;;19.45;10.38;;;;;;;4.54;78.67;98117.75;5049259;28;20031;-81
2022/12/06 11:36:01;;;;;;;19.40;10.77;;;;;;;4.55;78.92;98122.09;5046158;28;20048;-80
2022/12/06 11:38:27;;;;;;;21.55;11.18;;;;;;;4.57;78.91;98125.38;5038544;28;20116;-82
2022/12/06 11:40:53;;;;;;;19.38;10.77;;;;;;;4.54;78.50;98122.38;5048500;28;20115;-78
2022/12/06 11:43:26;;;;;;;17.15;10.98;;;;;;;4.52;78.46;98113.69;5048068;28;20033;-79
2022/12/06 11:45:54;;;;;;;21.15;12.40;;;;;;;4.51;78.72;98118.28;5047448;28;20044;-79
2022/12/06 11:48:23;;;;;;;21.60;11.00;;;;;;;4.50;79.14;98115.84;5050216;28;20390;-79
2022/12/06 11:50:50;;;;;;;23.27;12.80;;;;;;;4.47;79.00;98115.28;5050355;28;20039;-78
2022/12/06 11:53:36;;;;;;;24.27;13.30;;;;;;;4.41;79.09;98110.91;5048734;28;20045;-79
2022/12/06 11:56:22;;;;;;;26.20;12.98;;;;;;;4.37;79.27;98107.09;5050462;28;20024;-79
2022/12/06 11:59:07;;;;;;;28.00;13.50;;;;;;;4.37;78.56;98112.50;5050184;28;20357;-78
2022/12/06 12:01:39;;;;;;;47.60;18.90;;;;;;;4.35;78.80;98111.16;5049079;28;20086;-78
2022/12/06 12:04:22;;;;;;;54.08;19.83;;;;;;;4.37;79.20;98111.72;5050144;28;20043;-78
2022/12/06 12:06:55;;;;;;;42.30;19.23;;;;;;;4.38;79.17;98108.72;5050697;28;20025;-78
2022/12/06 12:09:28;;;;;;;36.88;17.20;;;;;;;4.36;78.98;98108.16;5050838;28;20029;-78
2022/12/06 12:11:59;;;;;;;34.42;18.25;;;;;;;4.33;78.68;98108.69;5049427;28;20029;-78